»·PEaware :: VIR234 KBOS-EGKK

VIR234 :: KBOS-EGKK

FLIGHT INFORMATION

Flight Status: Arrived
Operator:
Virgin Atlantic Airways
More flights by this operator :: More flights under this callsign
Pilot: Kyle K. (11122)
Aircraft: AIRBUS A330
(A330)
More flights by this aircraft type
Origin: KBOS Logan Intl
United States
Destination: EGKK Gatwick
United Kingdom
More flights between these airports :: More routes between these airports
Route: LBSTA6 LBSTA ALLEX IBERG/M081F390 49N050W 51N040W 52N030W 52N020W LIMRI/N0455F390 XETBO LEDGO UP72 DAWLY N17 OTMET OTME1G
File this flight plan on PilotEdge
Remarks:
Altitude:
(Current/Filed)
39,000ft
Speed:
(Current/Filed)
464kts
Departed: 20-Feb-18 11:23 AM
Arrived: 20-Feb-18 05:06 PM
Distance/Time
Traveled:
2844nm/5:43
Distance/Time
To Go:
Arrived

Flight Plot

Page will automatically refresh every two minutes.

Flight plan parsing failed; only flown route is shown


Map Options




Map Legend


Flown Route
Filed Route
Departure Airport
Arrival Airport
Navaid (VOR, NDB)
Fix

Horizontal Profiles

Position Reports

Time Latitude Longitude Heading Altitude Ground
Speed
20-Feb-18 11:29 43.127550 -69.866158 53 24896ft 510kts
20-Feb-18 11:30 43.202530 -69.699721 52 26323ft 521kts
20-Feb-18 11:31 43.278876 -69.529943 52 27642ft 532kts
20-Feb-18 11:32 43.356345 -69.357400 51 28876ft 541kts
20-Feb-18 11:33 43.433551 -69.183372 52 30349ft 539kts
20-Feb-18 11:34 43.511369 -69.009305 51 31859ft 533kts
20-Feb-18 11:35 43.588406 -68.836873 50 33292ft 526kts
20-Feb-18 11:36 43.664965 -68.665806 50 34374ft 524kts
20-Feb-18 11:37 43.741232 -68.495896 50 35352ft 522kts
20-Feb-18 11:38 43.815296 -68.330766 51 36186ft 521kts
20-Feb-18 11:39 43.890963 -68.160362 50 36795ft 521kts
20-Feb-18 11:40 43.967149 -67.990393 50 37371ft 521kts
20-Feb-18 11:41 44.043250 -67.820571 50 37889ft 521kts
20-Feb-18 11:42 44.118893 -67.651937 49 38364ft 521kts
20-Feb-18 11:43 44.195043 -67.482361 49 38828ft 521kts
20-Feb-18 11:44 44.270401 -67.313756 51 39199ft 522kts
20-Feb-18 11:45 44.333049 -67.173281 50 39313ft 516kts
20-Feb-18 11:46 44.425845 -66.980177 43 39309ft 516kts
20-Feb-18 11:47 44.482750 -66.792987 59 39296ft 534kts
20-Feb-18 11:48 44.532748 -66.636788 58 39303ft 530kts
20-Feb-18 11:49 44.603455 -66.418460 58 39307ft 531kts
20-Feb-18 11:50 44.662446 -66.233392 59 39306ft 532kts
20-Feb-18 11:51 44.712408 -66.078214 58 39317ft 531kts
20-Feb-18 11:52 44.782863 -65.859710 58 39323ft 531kts
20-Feb-18 11:53 44.833027 -65.703900 58 39321ft 531kts
20-Feb-18 11:54 44.903361 -65.485350 58 39322ft 531kts
20-Feb-18 11:55 44.952662 -65.331658 59 39322ft 532kts
20-Feb-18 11:56 45.010519 -65.146080 58 39321ft 538kts
20-Feb-18 11:57 45.069887 -64.956524 57 39321ft 541kts
20-Feb-18 11:58 45.132676 -64.772934 54 39322ft 539kts
20-Feb-18 11:59 45.196780 -64.586668 54 39324ft 539kts
20-Feb-18 12:00 45.261046 -64.398793 54 39326ft 539kts
20-Feb-18 12:01 45.323128 -64.211948 55 39326ft 542kts
20-Feb-18 12:02 45.386850 -64.023337 55 39322ft 540kts
20-Feb-18 12:03 45.450368 -63.835331 54 39320ft 539kts
20-Feb-18 12:04 45.514103 -63.646287 54 39323ft 541kts
20-Feb-18 12:05 45.577978 -63.456042 54 39328ft 540kts
20-Feb-18 12:06 45.640342 -63.265355 56 39321ft 542kts
20-Feb-18 12:07 45.703650 -63.073443 55 39322ft 540kts
20-Feb-18 12:08 45.766341 -62.882563 54 39323ft 532kts
20-Feb-18 12:09 45.829067 -62.692201 54 39321ft 532kts
20-Feb-18 12:10 45.891845 -62.501866 54 39318ft 532kts
20-Feb-18 12:11 45.953786 -62.312165 56 39316ft 533kts
20-Feb-18 12:12 46.015337 -62.118830 54 39312ft 533kts
20-Feb-18 12:13 46.077895 -61.926771 54 39290ft 533kts
20-Feb-18 12:14 46.142603 -61.739007 53 39298ft 532kts
20-Feb-18 12:15 46.205511 -61.546873 54 39296ft 532kts
20-Feb-18 12:16 46.267704 -61.354420 54 39296ft 533kts
20-Feb-18 12:17 46.327074 -61.163157 55 39294ft 535kts
20-Feb-18 12:18 46.387772 -60.970873 54 39295ft 531kts
20-Feb-18 12:19 46.448861 -60.778244 53 39288ft 531kts
20-Feb-18 12:20 46.510353 -60.584853 53 39292ft 531kts
20-Feb-18 12:21 46.571833 -60.390568 53 39292ft 530kts
20-Feb-18 12:22 46.631713 -60.194586 54 39289ft 534kts
20-Feb-18 12:23 46.692925 -59.998963 54 39292ft 532kts
20-Feb-18 12:24 46.755682 -59.804509 52 39295ft 530kts
20-Feb-18 12:25 46.818912 -59.610488 52 39288ft 530kts
20-Feb-18 12:26 46.881714 -59.416601 52 39293ft 529kts
20-Feb-18 12:27 46.942670 -59.219979 53 39290ft 540kts
20-Feb-18 12:28 47.006109 -59.018915 52 39290ft 551kts
20-Feb-18 12:29 47.070557 -58.813334 51 39290ft 560kts
20-Feb-18 12:30 47.136932 -58.613356 49 39294ft 552kts
20-Feb-18 12:31 47.201995 -58.409543 50 39294ft 555kts
20-Feb-18 12:32 47.261117 -58.212935 51 39294ft 549kts
20-Feb-18 12:33 47.322533 -58.013577 51 39293ft 552kts
20-Feb-18 12:34 47.383818 -57.814180 51 39292ft 550kts
20-Feb-18 12:35 47.445146 -57.613574 51 39292ft 550kts
20-Feb-18 12:36 47.506038 -57.412873 51 39296ft 550kts
20-Feb-18 12:37 47.563085 -57.218365 52 39291ft 553kts
20-Feb-18 12:38 47.621414 -57.022469 51 39290ft 549kts
20-Feb-18 12:39 47.680831 -56.820800 51 39291ft 542kts
20-Feb-18 12:40 47.737262 -56.629690 51 39294ft 543kts
20-Feb-18 12:41 47.796902 -56.426342 51 39293ft 543kts
20-Feb-18 12:42 47.854573 -56.223568 52 39289ft 546kts
20-Feb-18 12:43 47.913655 -56.018374 51 39289ft 544kts
20-Feb-18 12:44 47.973024 -55.811789 51 39291ft 545kts
20-Feb-18 12:45 48.031867 -55.605283 51 39290ft 544kts
20-Feb-18 12:46 48.090529 -55.398147 51 39289ft 544kts
20-Feb-18 12:47 48.148856 -55.196278 52 39293ft 547kts
20-Feb-18 12:48 48.205431 -54.992452 52 39292ft 540kts
20-Feb-18 12:49 48.262417 -54.787399 51 39293ft 539kts
20-Feb-18 12:50 48.319406 -54.581943 51 39296ft 537kts
20-Feb-18 12:51 48.376149 -54.375711 51 39295ft 538kts
20-Feb-18 12:52 48.431132 -54.169704 52 39290ft 542kts
20-Feb-18 12:53 48.487355 -53.960832 52 39289ft 540kts
20-Feb-18 12:54 48.543320 -53.751217 52 39291ft 541kts
20-Feb-18 12:55 48.598803 -53.541099 52 39293ft 540kts
20-Feb-18 12:56 48.653745 -53.330892 54 39287ft 541kts
20-Feb-18 12:57 48.707703 -53.119154 53 39292ft 543kts
20-Feb-18 12:58 48.762035 -52.907350 53 39292ft 538kts
20-Feb-18 12:59 48.815471 -52.697633 53 39296ft 535kts
20-Feb-18 13:00 48.868574 -52.486921 54 39292ft 534kts
20-Feb-18 13:01 48.920995 -52.276555 55 39292ft 537kts
20-Feb-18 13:02 48.975132 -52.066307 52 39291ft 531kts
20-Feb-18 13:03 49.002617 -51.840999 94 39316ft 602kts
20-Feb-18 13:04 48.995307 -51.593196 78 39286ft 580kts
20-Feb-18 13:05 48.996764 -51.348520 79 39286ft 582kts
20-Feb-18 13:06 48.997328 -51.101513 79 39289ft 583kts
20-Feb-18 13:07 48.997951 -50.857992 80 39289ft 568kts
20-Feb-18 13:08 48.997747 -50.616263 80 39294ft 572kts
20-Feb-18 13:09 48.996903 -50.375469 80 39296ft 573kts
20-Feb-18 13:10 48.995522 -50.134028 80 39288ft 572kts
20-Feb-18 13:11 49.014823 -49.901562 56 39285ft 532kts
20-Feb-18 13:12 49.070100 -49.693384 54 39287ft 531kts
20-Feb-18 13:13 49.126909 -49.485795 55 39295ft 536kts
20-Feb-18 13:14 49.182421 -49.275995 57 39297ft 537kts
20-Feb-18 13:15 49.238342 -49.063752 57 39290ft 532kts
20-Feb-18 13:16 49.293494 -48.856699 59 39290ft 532kts
20-Feb-18 13:17 49.347536 -48.645981 59 39292ft 533kts
20-Feb-18 13:18 49.401069 -48.433999 59 39295ft 533kts
20-Feb-18 13:19 49.452477 -48.224954 60 39290ft 534kts
20-Feb-18 13:20 49.504824 -48.011909 60 39291ft 534kts
20-Feb-18 13:21 49.556732 -47.798307 60 39293ft 534kts
20-Feb-18 13:22 49.608233 -47.583740 60 39292ft 535kts
20-Feb-18 13:23 49.658985 -47.369331 60 39295ft 534kts
20-Feb-18 13:24 49.708523 -47.153445 61 39291ft 535kts
20-Feb-18 13:25 49.758615 -46.936956 62 39291ft 533kts
20-Feb-18 13:26 49.808706 -46.722154 63 39292ft 529kts
20-Feb-18 13:27 49.857067 -46.506774 63 39292ft 530kts
20-Feb-18 13:28 49.904279 -46.291562 65 39291ft 532kts
20-Feb-18 13:29 49.951031 -46.074107 64 39290ft 531kts
20-Feb-18 13:30 49.997669 -45.856615 65 39288ft 532kts
20-Feb-18 13:31 50.043614 -45.638067 65 38891ft 531kts
20-Feb-18 13:32 50.088221 -45.419260 64 38619ft 535kts
20-Feb-18 13:33 50.133656 -45.199242 65 38616ft 534kts
20-Feb-18 13:34 50.178712 -44.978743 66 38615ft 532kts
20-Feb-18 13:35 50.223872 -44.761294 67 38617ft 527kts
20-Feb-18 13:36 50.267352 -44.542105 68 38617ft 528kts
20-Feb-18 13:37 50.309832 -44.323495 69 38613ft 529kts
20-Feb-18 13:38 50.351113 -44.102754 69 38616ft 530kts
20-Feb-18 13:39 50.392481 -43.882155 69 38616ft 529kts
20-Feb-18 13:40 50.433272 -43.660761 69 38617ft 528kts
20-Feb-18 13:41 50.473308 -43.439553 69 38617ft 529kts
20-Feb-18 13:42 50.512062 -43.216873 70 38616ft 530kts
20-Feb-18 13:43 50.551875 -42.994900 71 38616ft 525kts
20-Feb-18 13:44 50.590302 -42.775571 73 38617ft 524kts
20-Feb-18 13:45 50.627376 -42.554215 73 38618ft 523kts
20-Feb-18 13:46 50.663694 -42.332819 74 38615ft 523kts
20-Feb-18 13:47 50.698667 -42.110211 74 38615ft 524kts
20-Feb-18 13:48 50.733585 -41.887681 74 38617ft 523kts
20-Feb-18 13:49 50.767903 -41.664451 74 38618ft 523kts
20-Feb-18 13:50 50.801524 -41.440956 74 38617ft 523kts
20-Feb-18 13:51 50.833776 -41.217356 75 38617ft 524kts
20-Feb-18 13:52 50.866020 -40.992403 75 38617ft 524kts
20-Feb-18 13:53 50.899130 -40.769750 77 38618ft 516kts
20-Feb-18 13:54 50.930165 -40.547118 78 38617ft 522kts
20-Feb-18 13:55 50.960070 -40.323452 80 38615ft 521kts
20-Feb-18 13:56 50.988719 -40.098230 81 38616ft 523kts
20-Feb-18 13:57 51.021588 -39.873066 75 38617ft 527kts
20-Feb-18 13:58 51.061216 -39.648673 76 38617ft 528kts
20-Feb-18 13:59 51.099806 -39.423696 76 38618ft 528kts
20-Feb-18 14:00 51.136768 -39.203897 77 38615ft 527kts
20-Feb-18 14:01 51.174455 -38.978258 78 38615ft 528kts
20-Feb-18 14:02 51.212272 -38.752431 79 38616ft 526kts
20-Feb-18 14:03 51.242139 -38.563863 80 38615ft 527kts
20-Feb-18 14:04 51.282373 -38.302920 81 38615ft 526kts
20-Feb-18 14:05 51.316066 -38.076537 81 38615ft 526kts
20-Feb-18 14:06 51.344066 -37.886807 81 38619ft 526kts
20-Feb-18 14:07 51.376893 -37.659624 81 38618ft 526kts
20-Feb-18 14:08 51.408951 -37.432024 81 38617ft 526kts
20-Feb-18 14:09 51.444761 -37.165799 82 38615ft 525kts
20-Feb-18 14:10 51.472120 -36.975406 84 38615ft 522kts
20-Feb-18 14:11 51.502787 -36.750800 86 38620ft 519kts
20-Feb-18 14:12 51.531442 -36.524418 87 38620ft 517kts
20-Feb-18 14:13 51.559204 -36.298059 89 38615ft 515kts
20-Feb-18 14:14 51.585721 -36.072143 88 38614ft 517kts
20-Feb-18 14:15 51.611978 -35.845968 88 38618ft 516kts
20-Feb-18 14:16 51.637568 -35.619122 88 38614ft 517kts
20-Feb-18 14:17 51.662375 -35.391411 88 38618ft 515kts
20-Feb-18 14:18 51.685597 -35.165080 89 38789ft 513kts
20-Feb-18 14:19 51.709164 -34.937658 90 39013ft 519kts
20-Feb-18 14:20 51.734895 -34.710627 93 39003ft 511kts
20-Feb-18 14:21 51.756956 -34.484576 94 39008ft 511kts
20-Feb-18 14:22 51.777400 -34.258744 96 39007ft 508kts
20-Feb-18 14:23 51.797187 -34.033507 95 39004ft 509kts
20-Feb-18 14:24 51.816492 -33.806986 95 39004ft 508kts
20-Feb-18 14:25 51.834899 -33.581546 96 39003ft 508kts
20-Feb-18 14:26 51.852465 -33.354354 95 39025ft 506kts
20-Feb-18 14:27 51.868461 -33.129006 97 39021ft 507kts
20-Feb-18 14:28 51.883962 -32.903718 96 39026ft 504kts
20-Feb-18 14:29 51.898681 -32.678050 96 39022ft 506kts
20-Feb-18 14:30 51.912868 -32.452498 96 39024ft 505kts
20-Feb-18 14:31 51.925677 -32.227012 98 39023ft 501kts
20-Feb-18 14:32 51.937948 -32.002293 97 39019ft 498kts
20-Feb-18 14:33 51.949460 -31.779391 98 39026ft 500kts
20-Feb-18 14:34 51.960178 -31.556458 98 39025ft 497kts
20-Feb-18 14:35 51.970018 -31.332876 99 39024ft 497kts
20-Feb-18 14:36 51.978200 -31.110317 99 39025ft 497kts
20-Feb-18 14:37 51.984710 -30.884769 97 39023ft 505kts
20-Feb-18 14:38 51.991924 -30.657692 97 39024ft 505kts
20-Feb-18 14:39 51.998244 -30.430533 97 39025ft 504kts
20-Feb-18 14:40 52.002720 -30.204166 99 39024ft 501kts
20-Feb-18 14:41 52.000607 -29.979692 109 39027ft 486kts
20-Feb-18 14:42 52.024482 -29.753593 91 39012ft 516kts
20-Feb-18 14:43 52.043554 -29.524082 92 39005ft 513kts
20-Feb-18 14:44 52.060526 -29.294768 94 39038ft 510kts
20-Feb-18 14:45 52.076424 -29.065250 93 39052ft 512kts
20-Feb-18 14:46 52.091072 -28.836908 93 39061ft 509kts
20-Feb-18 14:47 52.105404 -28.608261 91 39068ft 509kts
20-Feb-18 14:48 52.119520 -28.379243 92 39094ft 509kts
20-Feb-18 14:49 52.131663 -28.154894 93 39100ft 508kts
20-Feb-18 14:50 52.143660 -27.926552 93 39101ft 507kts
20-Feb-18 14:51 52.154872 -27.697868 94 39102ft 508kts
20-Feb-18 14:52 52.165231 -27.468636 94 39103ft 507kts
20-Feb-18 14:53 52.174208 -27.240414 95 39101ft 505kts
20-Feb-18 14:54 52.182356 -27.012293 95 39100ft 506kts
20-Feb-18 14:55 52.188728 -26.783576 93 39102ft 505kts
20-Feb-18 14:56 52.195452 -26.555039 93 39103ft 506kts
20-Feb-18 14:57 52.201402 -26.326156 95 39100ft 505kts
20-Feb-18 14:58 52.205948 -26.097963 95 39101ft 505kts
20-Feb-18 14:59 52.210166 -25.870309 95 39102ft 505kts
20-Feb-18 15:00 52.213534 -25.641572 95 39103ft 505kts
20-Feb-18 15:01 52.216008 -25.412888 95 39102ft 505kts
20-Feb-18 15:02 52.217042 -25.185790 96 39102ft 503kts
20-Feb-18 15:03 52.216917 -24.957655 95 39101ft 505kts
20-Feb-18 15:04 52.216451 -24.728888 95 39102ft 505kts
20-Feb-18 15:05 52.215461 -24.500710 95 39102ft 505kts
20-Feb-18 15:06 52.213262 -24.272442 97 39102ft 503kts
20-Feb-18 15:07 52.210216 -24.044256 97 39102ft 504kts
20-Feb-18 15:08 52.206542 -23.816476 97 39102ft 504kts
20-Feb-18 15:09 52.201987 -23.588563 97 39102ft 504kts
20-Feb-18 15:10 52.196502 -23.360700 97 39103ft 504kts
20-Feb-18 15:11 52.189576 -23.134415 98 39102ft 503kts
20-Feb-18 15:12 52.181968 -22.906938 98 39101ft 500kts
20-Feb-18 15:13 52.173104 -22.682395 97 39102ft 498kts
20-Feb-18 15:14 52.164027 -22.457767 98 39101ft 498kts
20-Feb-18 15:15 52.153668 -22.233922 99 39102ft 497kts
20-Feb-18 15:16 52.142747 -22.009712 99 39102ft 497kts
20-Feb-18 15:17 52.131025 -21.785209 99 39102ft 497kts
20-Feb-18 15:18 52.118491 -21.561945 99 39104ft 497kts
20-Feb-18 15:19 52.104994 -21.338270 100 39103ft 497kts
20-Feb-18 15:20 52.090079 -21.115469 100 39102ft 497kts
20-Feb-18 15:21 52.074257 -20.893746 100 39292ft 493kts
20-Feb-18 15:22 52.057856 -20.673204 100 39460ft 494kts
20-Feb-18 15:23 52.040800 -20.452007 100 39483ft 492kts
20-Feb-18 15:24 52.022324 -20.232406 101 39481ft 492kts
20-Feb-18 15:25 52.002307 -20.012978 103 39478ft 491kts
20-Feb-18 15:26 52.009404 -19.790416 88 39471ft 500kts
20-Feb-18 15:27 52.018384 -19.566699 89 39479ft 499kts
20-Feb-18 15:28 52.026239 -19.341884 90 39482ft 498kts
20-Feb-18 15:29 52.032484 -19.118271 90 39482ft 497kts
20-Feb-18 15:30 52.037839 -18.895848 89 39481ft 491kts
20-Feb-18 15:31 52.042956 -18.673483 89 39479ft 493kts
20-Feb-18 15:32 52.047351 -18.451680 90 39481ft 492kts
20-Feb-18 15:33 52.050442 -18.234693 91 39482ft 490kts
20-Feb-18 15:34 52.052971 -18.014067 91 39480ft 490kts
20-Feb-18 15:35 52.054791 -17.792355 91 39479ft 490kts
20-Feb-18 15:36 52.055750 -17.571610 91 39480ft 490kts
20-Feb-18 15:37 52.055852 -17.350190 91 39480ft 490kts
20-Feb-18 15:38 52.054482 -17.129702 92 39480ft 490kts
20-Feb-18 15:39 52.052563 -16.909176 92 39481ft 489kts
20-Feb-18 15:40 52.049655 -16.712639 92 39481ft 486kts
20-Feb-18 15:41 52.046402 -16.493126 92 39481ft 487kts
20-Feb-18 15:42 52.042037 -16.273558 93 39480ft 487kts
20-Feb-18 15:43 52.036965 -16.056406 93 39480ft 487kts
20-Feb-18 15:44 52.031234 -15.837127 93 39481ft 487kts
20-Feb-18 15:45 52.024639 -15.617699 93 39481ft 487kts
20-Feb-18 15:46 52.017172 -15.399209 93 39481ft 487kts
20-Feb-18 15:47 52.008247 -15.180414 95 39481ft 486kts
20-Feb-18 15:48 51.999202 -14.961831 89 39481ft 486kts
20-Feb-18 15:49 52.001076 -14.744467 88 39479ft 481kts
20-Feb-18 15:50 52.001804 -14.527209 88 39480ft 481kts
20-Feb-18 15:51 52.001601 -14.310971 90 39482ft 482kts
20-Feb-18 15:52 52.000332 -14.093611 89 39481ft 482kts
20-Feb-18 15:53 51.990604 -13.877552 96 39483ft 482kts
20-Feb-18 15:54 51.976636 -13.661448 95 39479ft 482kts
20-Feb-18 15:55 51.962496 -13.445691 95 39479ft 482kts
20-Feb-18 15:56 51.947051 -13.230507 96 39480ft 482kts
20-Feb-18 15:57 51.930503 -13.014492 95 39480ft 483kts
20-Feb-18 15:58 51.913229 -12.800862 94 39483ft 479kts
20-Feb-18 15:59 51.895739 -12.587230 95 39481ft 479kts
20-Feb-18 16:00 51.877182 -12.374181 95 39480ft 480kts
20-Feb-18 16:01 51.858194 -12.167082 96 39479ft 480kts
20-Feb-18 16:02 51.838750 -11.957447 96 39481ft 480kts
20-Feb-18 16:03 51.818165 -11.744344 96 39481ft 480kts
20-Feb-18 16:04 51.796822 -11.531865 96 39480ft 480kts
20-Feb-18 16:05 51.774951 -11.322744 98 39480ft 480kts
20-Feb-18 16:06 51.751608 -11.112061 98 39481ft 480kts
20-Feb-18 16:07 51.727528 -10.900457 97 39481ft 479kts
20-Feb-18 16:08 51.702408 -10.691040 97 39481ft 476kts
20-Feb-18 16:09 51.677190 -10.481563 97 39481ft 477kts
20-Feb-18 16:10 51.651039 -10.273494 98 39479ft 478kts
20-Feb-18 16:11 51.624156 -10.065356 98 39471ft 477kts
20-Feb-18 16:12 51.596546 -9.856642 98 39455ft 477kts
20-Feb-18 16:13 51.568127 -9.648303 98 39454ft 477kts
20-Feb-18 16:14 51.541079 -9.455480 99 39452ft 478kts
20-Feb-18 16:15 51.510931 -9.249156 100 39453ft 479kts
20-Feb-18 16:16 51.480132 -9.042199 100 39454ft 478kts
20-Feb-18 16:17 51.448280 -8.834541 99 39456ft 481kts
20-Feb-18 16:18 51.415753 -8.626439 100 39455ft 481kts
20-Feb-18 16:19 51.382578 -8.418967 100 39454ft 482kts
20-Feb-18 16:20 51.348941 -8.216634 101 39452ft 482kts
20-Feb-18 16:21 51.320041 -8.044179 101 39456ft 482kts
20-Feb-18 16:22 51.279064 -7.804014 101 39453ft 482kts
20-Feb-18 16:23 51.249583 -7.632337 100 39455ft 482kts
20-Feb-18 16:24 51.213506 -7.390626 97 39453ft 480kts
20-Feb-18 16:25 51.190817 -7.218107 97 39453ft 479kts
20-Feb-18 16:26 51.163446 -7.010673 97 39455ft 479kts
20-Feb-18 16:27 51.135388 -6.803994 97 39400ft 478kts
20-Feb-18 16:28 51.106832 -6.597585 97 39375ft 478kts
20-Feb-18 16:29 51.077601 -6.391652 97 39366ft 478kts
20-Feb-18 16:30 51.047106 -6.186754 99 39371ft 479kts
20-Feb-18 16:31 51.016203 -5.981465 98 39372ft 480kts
20-Feb-18 16:32 50.984265 -5.775961 98 39376ft 478kts
20-Feb-18 16:33 50.952622 -5.571014 99 39379ft 480kts
20-Feb-18 16:34 50.919415 -5.366613 99 39375ft 479kts
20-Feb-18 16:35 50.885419 -5.168205 100 39377ft 480kts
20-Feb-18 16:36 50.850559 -4.965039 100 39373ft 480kts
20-Feb-18 16:37 50.814206 -4.764678 98 39375ft 471kts
20-Feb-18 16:38 50.778521 -4.565478 98 39376ft 472kts
20-Feb-18 16:39 50.742611 -4.367329 98 39353ft 471kts
20-Feb-18 16:40 50.706853 -4.177177 99 39347ft 473kts
20-Feb-18 16:41 50.669661 -3.979351 99 39350ft 472kts
20-Feb-18 16:42 50.631860 -3.781791 99 39349ft 473kts
20-Feb-18 16:43 50.593980 -3.584646 99 39351ft 472kts
20-Feb-18 16:44 50.578820 -3.387332 72 39373ft 446kts
20-Feb-18 16:45 50.600576 -3.199373 72 39349ft 445kts
20-Feb-18 16:46 50.624630 -3.009005 69 39348ft 439kts
20-Feb-18 16:47 50.643636 -2.815963 72 36259ft 442kts
20-Feb-18 16:48 50.665285 -2.628926 71 33904ft 437kts
20-Feb-18 16:49 50.681811 -2.440706 94 31563ft 467kts
20-Feb-18 16:50 50.665966 -2.249565 87 29247ft 464kts
20-Feb-18 16:51 50.659540 -2.054375 84 26847ft 450kts
20-Feb-18 16:52 50.658420 -1.866719 82 24742ft 429kts
20-Feb-18 16:53 50.661249 -1.682262 82 22721ft 417kts
20-Feb-18 16:54 50.667076 -1.505925 78 20360ft 415kts
20-Feb-18 16:55 50.706214 -1.362562 43 18636ft 375kts
20-Feb-18 16:56 50.764805 -1.264219 44 16953ft 327kts
20-Feb-18 16:57 50.814793 -1.163923 56 14816ft 314kts
20-Feb-18 16:58 50.852644 -1.063841 55 12797ft 315kts
20-Feb-18 16:59 50.909084 -0.988276 31 10999ft 287kts
20-Feb-18 17:00 50.967610 -0.949436 18 9281ft 262kts
20-Feb-18 17:01 51.024055 -0.930978 10 7849ft 253kts
20-Feb-18 17:02 51.046395 -0.859901 107 6751ft 265kts
20-Feb-18 17:03 51.006967 -0.774594 122 5358ft 251kts
20-Feb-18 17:04 51.019460 -0.685783 54 3650ft 221kts
20-Feb-18 17:05 51.053488 -0.612417 54 2951ft 196kts
20-Feb-18 17:06 51.077650 -0.554162 55 2966ft 165kts
20-Feb-18 17:07 51.100361 -0.498734 54 2970ft 165kts
20-Feb-18 17:08 51.113371 -0.441043 72 2988ft 160kts
20-Feb-18 17:09 51.122151 -0.380048 75 2391ft 135kts
20-Feb-18 17:10 51.129628 -0.324754 76 1708ft 133kts
20-Feb-18 17:11 51.136809 -0.272574 75 1053ft 131kts
20-Feb-18 17:12 51.143687 -0.222317 75 424ft 129kts
20-Feb-18 17:13 51.148856 -0.185099 77 200ft 37kts
20-Feb-18 17:14 51.151299 -0.177597 352 199ft 8kts
20-Feb-18 17:15 51.149652 -0.180175 69 200ft 24kts
20-Feb-18 17:16 51.145910 -0.206013 75 232ft 128kts
20-Feb-18 17:17 51.147947 -0.191843 75 199ft 83kts
20-Feb-18 17:18 51.153871 -0.173844 352 192ft 6kts
20-Feb-18 17:19 51.158155 -0.171377 78 202ft 11kts
20-Feb-18 17:20 51.158226 -0.169972 89 200ft 0kts
20-Feb-18 17:21 51.158226 -0.169983 89 199ft 0kts
20-Feb-18 17:22 51.158226 -0.169984 89 200ft 0kts
20-Feb-18 17:23 51.158233 -0.169307 89 200ft 0kts

Navigation Log

Ident Type
Flight plan parsing failed, navigation log unavailable